createdAt,value
2022-10-25T00:00:20.262Z,8.40
2022-10-25T00:02:47.860Z,6.20
2022-10-25T00:05:16.849Z,3.00
2022-10-25T00:07:44.886Z,4.40
2022-10-25T00:10:13.051Z,6.00
2022-10-25T00:12:44.973Z,4.20
2022-10-25T00:15:16.264Z,7.20
2022-10-25T00:17:45.326Z,9.60
2022-10-25T00:20:13.343Z,7.00
2022-10-25T00:22:41.201Z,6.80
2022-10-25T00:25:09.919Z,6.60
2022-10-25T00:27:37.753Z,7.00
2022-10-25T00:30:07.139Z,12.40
2022-10-25T00:32:35.463Z,7.40
2022-10-25T00:35:04.052Z,6.20
2022-10-25T00:37:31.840Z,6.00
2022-10-25T00:39:59.268Z,7.80
2022-10-25T00:42:29.433Z,4.00
2022-10-25T00:44:59.412Z,6.80
2022-10-25T00:47:53.333Z,6.40
2022-10-25T00:50:24.140Z,5.60
2022-10-25T00:52:56.789Z,9.40
2022-10-25T00:55:27.637Z,10.00
2022-10-25T00:58:04.303Z,8.60
2022-10-25T01:00:32.308Z,3.60
2022-10-25T01:03:00.401Z,6.20
2022-10-25T01:05:28.244Z,14.40
2022-10-25T01:07:56.159Z,11.00
2022-10-25T01:10:23.624Z,12.00
2022-10-25T01:12:52.178Z,13.00
2022-10-25T01:15:24.771Z,8.20
2022-10-25T01:18:06.093Z,13.40
2022-10-25T01:20:46.172Z,8.60
2022-10-25T01:23:35.414Z,9.60
2022-10-25T01:26:18.009Z,10.60
2022-10-25T01:29:09.852Z,9.80
2022-10-25T01:31:56.908Z,6.00
2022-10-25T01:34:33.979Z,12.40
2022-10-25T01:37:09.139Z,11.20
2022-10-25T01:39:45.657Z,9.80
2022-10-25T01:42:35.988Z,11.40
2022-10-25T01:45:13.699Z,3.80
2022-10-25T01:48:03.991Z,11.00
2022-10-25T01:50:39.610Z,15.60
2022-10-25T01:53:07.265Z,11.80
2022-10-25T01:55:40.614Z,9.00
2022-10-25T01:58:35.412Z,12.20
2022-10-25T02:01:21.424Z,11.40
2022-10-25T02:03:54.579Z,18.40
2022-10-25T02:06:41.829Z,12.80
2022-10-25T02:09:15.417Z,13.00
2022-10-25T02:11:43.007Z,8.80
2022-10-25T02:14:37.713Z,14.00
2022-10-25T02:17:22.979Z,9.60
2022-10-25T02:19:58.654Z,12.20
2022-10-25T02:22:30.203Z,17.00
2022-10-25T02:24:59.839Z,13.40
2022-10-25T02:27:28.600Z,12.20
2022-10-25T02:29:58.648Z,15.40
2022-10-25T02:32:26.249Z,13.60
2022-10-25T02:34:53.656Z,14.00
2022-10-25T02:37:21.173Z,9.60
2022-10-25T02:39:50.574Z,12.60
2022-10-25T02:42:18.100Z,9.00
2022-10-25T02:44:45.458Z,12.40
2022-10-25T02:47:13.101Z,11.60
2022-10-25T02:49:40.746Z,11.60
2022-10-25T02:52:08.496Z,10.20
2022-10-25T02:54:35.932Z,9.40
2022-10-25T02:57:03.574Z,9.00
2022-10-25T02:59:31.193Z,15.00
2022-10-25T03:01:58.780Z,13.60
2022-10-25T03:04:26.577Z,12.20
2022-10-25T03:06:54.637Z,9.40
2022-10-25T03:09:22.415Z,13.40
2022-10-25T03:11:50.362Z,13.20
2022-10-25T03:14:17.672Z,15.80
2022-10-25T03:16:45.424Z,12.80
2022-10-25T03:19:13.262Z,6.80
2022-10-25T03:21:41.945Z,8.00
2022-10-25T03:24:09.662Z,6.60
2022-10-25T03:26:37.299Z,13.40
2022-10-25T03:29:04.686Z,11.40
2022-10-25T03:31:32.307Z,14.60
2022-10-25T03:33:59.533Z,13.80
2022-10-25T03:36:26.802Z,6.00
2022-10-25T03:38:54.340Z,14.60
2022-10-25T03:41:22.116Z,3.20
2022-10-25T03:43:49.664Z,14.20
2022-10-25T03:46:17.211Z,10.20
2022-10-25T03:48:44.814Z,13.40
2022-10-25T03:51:12.366Z,11.80
2022-10-25T03:53:39.918Z,14.00
2022-10-25T03:56:08.016Z,8.40
2022-10-25T03:58:35.474Z,12.20
2022-10-25T04:01:03.221Z,8.80
2022-10-25T04:03:30.882Z,13.60
2022-10-25T04:05:59.435Z,13.60
2022-10-25T04:08:27.090Z,11.60
2022-10-25T04:10:54.521Z,15.60
2022-10-25T04:13:21.983Z,15.20
2022-10-25T04:15:49.530Z,9.80
2022-10-25T04:18:17.004Z,15.00
2022-10-25T04:20:44.536Z,11.60
2022-10-25T04:23:12.212Z,13.80
2022-10-25T04:25:39.765Z,9.60
2022-10-25T04:28:07.410Z,10.60
2022-10-25T04:30:37.962Z,15.00
2022-10-25T04:33:06.528Z,6.80
2022-10-25T04:35:33.989Z,11.20
2022-10-25T04:38:01.612Z,9.40
2022-10-25T04:40:29.365Z,11.40
2022-10-25T04:42:57.203Z,10.60
2022-10-25T04:45:24.977Z,9.40
2022-10-25T04:47:52.811Z,13.20
2022-10-25T04:50:20.642Z,18.80
2022-10-25T04:52:48.345Z,10.20
2022-10-25T04:55:16.235Z,16.00
2022-10-25T04:57:43.834Z,12.00
2022-10-25T05:00:11.897Z,9.00
2022-10-25T05:02:39.639Z,9.80
2022-10-25T05:05:07.620Z,12.20
2022-10-25T05:07:35.172Z,14.00
2022-10-25T05:10:02.988Z,11.40
2022-10-25T05:12:30.491Z,11.00
2022-10-25T05:14:58.185Z,8.60
2022-10-25T05:17:25.863Z,8.20
2022-10-25T05:19:53.566Z,7.20
2022-10-25T05:22:21.023Z,0.00
2022-10-25T05:24:48.730Z,15.20
2022-10-25T05:27:16.652Z,11.80
2022-10-25T05:29:44.221Z,3.20
2022-10-25T05:32:11.790Z,8.20
2022-10-25T05:34:39.462Z,5.80
2022-10-25T05:37:07.050Z,9.40
2022-10-25T05:39:34.743Z,7.20
2022-10-25T05:42:06.591Z,7.60
2022-10-25T05:44:34.340Z,5.40
2022-10-25T05:47:01.850Z,5.40
2022-10-25T05:49:29.418Z,1.60
2022-10-25T05:51:57.117Z,6.60
2022-10-25T05:54:24.905Z,5.20
2022-10-25T05:56:52.522Z,6.80
2022-10-25T05:59:20.186Z,4.20
2022-10-25T06:01:47.975Z,5.40
2022-10-25T06:04:16.791Z,4.40
2022-10-25T06:06:47.135Z,4.60
2022-10-25T06:09:15.190Z,6.80
2022-10-25T06:11:43.092Z,8.40
2022-10-25T06:14:11.299Z,4.60
2022-10-25T06:16:39.919Z,3.60
2022-10-25T06:19:08.241Z,6.20
2022-10-25T06:21:36.045Z,4.40
2022-10-25T06:24:04.594Z,3.80
2022-10-25T06:26:32.872Z,4.20
2022-10-25T06:29:04.360Z,4.80
2022-10-25T06:31:33.571Z,4.40
2022-10-25T06:34:02.461Z,7.00
2022-10-25T06:36:31.682Z,4.40
2022-10-25T06:39:05.635Z,6.60
2022-10-25T06:41:37.386Z,2.60
2022-10-25T06:44:07.186Z,4.60
2022-10-25T06:47:04.357Z,6.00
2022-10-25T06:49:25.581Z,6.60
2022-10-25T06:51:53.185Z,4.60
2022-10-25T06:54:20.873Z,4.60
2022-10-25T06:56:48.721Z,3.00
2022-10-25T06:59:16.464Z,6.80
2022-10-25T07:01:44.448Z,4.20
2022-10-25T07:04:12.182Z,3.60
2022-10-25T07:06:39.857Z,1.40
2022-10-25T07:09:09.725Z,5.60
2022-10-25T07:11:37.716Z,2.80
2022-10-25T07:14:05.600Z,4.20
2022-10-25T07:16:33.241Z,4.40
2022-10-25T07:19:04.842Z,4.40
2022-10-25T07:21:33.716Z,3.40
2022-10-25T07:24:01.881Z,6.20
2022-10-25T07:26:35.307Z,1.80
2022-10-25T07:29:04.518Z,3.60
2022-10-25T07:31:35.766Z,3.00
2022-10-25T07:34:05.214Z,1.40
2022-10-25T07:36:32.945Z,2.40
2022-10-25T07:39:01.137Z,3.60
2022-10-25T07:41:28.882Z,0.40
2022-10-25T07:43:56.722Z,3.60
2022-10-25T07:46:24.687Z,2.60
2022-10-25T07:48:55.337Z,3.80
2022-10-25T07:51:23.251Z,3.00
2022-10-25T07:53:51.093Z,5.40
2022-10-25T07:56:23.343Z,2.20
2022-10-25T07:58:52.799Z,3.60
2022-10-25T08:01:26.604Z,3.40
2022-10-25T08:03:55.402Z,7.00
2022-10-25T08:06:24.609Z,7.00
2022-10-25T08:08:53.155Z,7.80
2022-10-25T08:11:21.329Z,7.80
2022-10-25T08:13:50.647Z,10.40
2022-10-25T08:16:18.720Z,7.00
2022-10-25T08:18:46.399Z,6.60
2022-10-25T08:21:14.078Z,10.40
2022-10-25T08:23:42.085Z,4.00
2022-10-25T08:26:09.519Z,0.60
2022-10-25T08:28:37.406Z,5.20
2022-10-25T08:31:05.169Z,6.00
2022-10-25T08:33:33.314Z,7.60
2022-10-25T08:36:02.714Z,4.00
2022-10-25T08:38:30.727Z,7.20
2022-10-25T08:41:07.172Z,4.00
2022-10-25T08:43:55.725Z,7.20
2022-10-25T08:46:31.769Z,7.60
2022-10-25T08:49:16.190Z,5.40
2022-10-25T08:51:47.751Z,8.60
2022-10-25T08:54:25.482Z,7.00
2022-10-25T08:57:15.135Z,9.80
2022-10-25T08:59:46.230Z,10.80
2022-10-25T09:02:35.879Z,8.20
2022-10-25T09:05:03.481Z,13.00
2022-10-25T09:07:55.516Z,10.00
2022-10-25T09:10:48.462Z,8.00
2022-10-25T09:16:22.083Z,9.00
2022-10-25T09:18:55.268Z,5.40
2022-10-25T09:21:42.042Z,12.60
2022-10-25T09:24:28.267Z,8.80
2022-10-25T09:26:58.505Z,5.00
2022-10-25T09:29:29.002Z,16.40
2022-10-25T09:31:59.639Z,12.20
2022-10-25T09:34:33.675Z,16.40
2022-10-25T09:37:19.690Z,13.80
2022-10-25T09:39:52.839Z,7.60
2022-10-25T09:42:39.147Z,13.20
2022-10-25T09:45:41.969Z,15.40
2022-10-25T09:48:18.921Z,15.80
2022-10-25T09:51:03.162Z,15.00
2022-10-25T09:53:33.043Z,14.80
2022-10-25T09:56:05.362Z,9.40
2022-10-25T09:58:47.401Z,9.00
2022-10-25T10:01:26.135Z,16.00
2022-10-25T10:03:58.055Z,14.80
2022-10-25T10:06:34.040Z,13.40
2022-10-25T10:09:06.320Z,14.60
2022-10-25T10:11:35.799Z,8.20
2022-10-25T10:14:37.313Z,10.80
2022-10-25T10:17:12.437Z,10.40
2022-10-25T10:19:42.004Z,10.80
2022-10-25T10:22:17.403Z,9.60
2022-10-25T10:24:49.841Z,14.80
2022-10-25T10:27:29.955Z,9.75
2022-10-25T10:30:09.199Z,11.75
2022-10-25T10:35:24.994Z,12.50
2022-10-25T10:37:52.599Z,10.25
2022-10-25T10:40:20.887Z,10.75
2022-10-25T10:42:48.828Z,8.75
2022-10-25T10:45:18.920Z,14.25
2022-10-25T10:47:49.887Z,13.80
2022-10-25T10:50:26.123Z,10.20
2022-10-25T10:53:16.275Z,13.40
2022-10-25T10:55:46.607Z,17.60
2022-10-25T10:58:19.360Z,17.20
2022-10-25T11:01:11.524Z,4.40
2022-10-25T11:03:48.983Z,13.40
2022-10-25T11:06:32.523Z,13.60
2022-10-25T11:09:22.681Z,16.00
2022-10-25T11:12:11.177Z,14.40
2022-10-25T11:14:39.174Z,11.60
2022-10-25T11:17:37.721Z,11.60
2022-10-25T11:20:34.720Z,11.80
2022-10-25T11:23:29.895Z,9.00
2022-10-25T11:26:23.208Z,12.80
2022-10-25T11:28:59.091Z,12.00
2022-10-25T11:31:30.276Z,8.40
2022-10-25T11:34:11.924Z,8.20
2022-10-25T11:37:07.294Z,10.40
2022-10-25T11:39:54.175Z,8.60
2022-10-25T11:42:37.555Z,9.00
2022-10-25T11:45:22.593Z,9.75
2022-10-25T11:48:04.796Z,4.50
2022-10-25T11:50:42.896Z,8.60
2022-10-25T11:53:31.690Z,7.20
2022-10-25T11:56:26.683Z,4.00
2022-10-25T11:59:26.847Z,7.20
2022-10-25T12:02:15.572Z,9.20
2022-10-25T12:04:56.334Z,11.80
2022-10-25T12:07:37.705Z,5.80
2022-10-25T12:10:08.438Z,3.60
2022-10-25T12:12:49.991Z,9.00
2022-10-25T12:15:43.445Z,9.40
2022-10-25T12:18:17.043Z,7.00
2022-10-25T12:20:47.646Z,10.80
2022-10-25T12:23:19.443Z,10.40
2022-10-25T12:26:06.320Z,9.00
2022-10-25T12:28:44.964Z,10.40
2022-10-25T12:31:31.940Z,9.00
2022-10-25T12:34:12.399Z,7.60
2022-10-25T12:36:45.594Z,10.00
2022-10-25T12:39:28.209Z,9.60
2022-10-25T12:42:06.567Z,7.40
2022-10-25T12:44:52.552Z,10.80
2022-10-25T12:47:41.778Z,15.60
2022-10-25T12:50:34.762Z,18.00
2022-10-25T12:53:02.237Z,15.75
2022-10-25T12:55:42.799Z,14.00
2022-10-25T12:58:29.125Z,12.50
2022-10-25T13:01:02.799Z,17.50
2022-10-25T13:04:00.282Z,16.75
2022-10-25T13:06:36.009Z,17.00
2022-10-25T13:09:16.043Z,18.50
2022-10-25T13:11:50.039Z,12.50
2022-10-25T13:14:31.445Z,15.25
2022-10-25T13:17:17.909Z,18.00
2022-10-25T13:19:54.477Z,18.00
2022-10-25T13:22:41.915Z,21.00
2022-10-25T13:25:09.645Z,20.25
2022-10-25T13:27:37.643Z,26.75
2022-10-25T13:30:08.011Z,23.25
2022-10-25T13:32:43.043Z,26.25
2022-10-25T13:35:23.094Z,23.50
2022-10-25T13:38:06.351Z,26.25
2022-10-25T13:40:34.261Z,19.50
2022-10-25T13:43:19.863Z,19.25
2022-10-25T13:45:55.618Z,17.75
2022-10-25T13:48:32.915Z,26.75
2022-10-25T13:51:10.444Z,22.00
2022-10-25T13:53:45.482Z,26.00
2022-10-25T13:56:14.536Z,22.25
2022-10-25T13:58:44.204Z,24.00
2022-10-25T14:01:18.099Z,26.25
2022-10-25T14:03:49.122Z,16.50
2022-10-25T14:06:35.520Z,20.75
2022-10-25T14:09:26.244Z,18.00
2022-10-25T14:12:15.577Z,13.75
2022-10-25T14:15:04.801Z,24.75
2022-10-25T14:17:44.999Z,21.75
2022-10-25T14:20:31.557Z,10.50
2022-10-25T14:23:08.011Z,17.50
2022-10-25T14:25:49.086Z,11.75
2022-10-25T14:28:22.357Z,19.75
2022-10-25T14:30:53.348Z,16.75
2022-10-25T14:33:28.735Z,21.75
2022-10-25T14:36:13.888Z,23.00
2022-10-25T14:38:57.758Z,20.50
2022-10-25T14:41:36.244Z,15.25
2022-10-25T14:44:19.876Z,13.25
2022-10-25T14:46:47.526Z,18.75
2022-10-25T14:49:15.364Z,23.50
2022-10-25T14:51:46.762Z,20.50
2022-10-25T14:54:17.182Z,21.75
2022-10-25T14:56:49.459Z,23.50
2022-10-25T15:02:30.487Z,20.20
2022-10-25T15:05:00.077Z,23.60
2022-10-25T15:07:47.251Z,21.00
2022-10-25T15:10:41.440Z,20.50
2022-10-25T15:13:22.714Z,26.00
2022-10-25T15:15:52.227Z,20.75
2022-10-25T15:18:38.713Z,21.25
2022-10-25T15:21:13.652Z,16.25
2022-10-25T15:23:43.375Z,15.75
2022-10-25T15:26:29.510Z,25.75
2022-10-25T15:28:59.258Z,27.60
2022-10-25T15:31:32.318Z,24.60
2022-10-25T15:34:01.881Z,22.25
2022-10-25T15:36:31.407Z,18.25
2022-10-25T15:39:12.922Z,27.00
2022-10-25T15:41:44.227Z,19.75
2022-10-25T15:44:11.602Z,23.25
2022-10-25T15:46:40.302Z,23.00
2022-10-25T15:49:08.694Z,23.00
2022-10-25T15:51:42.332Z,25.50
2022-10-25T15:54:16.452Z,22.75
2022-10-25T15:56:44.166Z,26.75
2022-10-25T15:59:12.332Z,28.75
2022-10-25T16:01:42.704Z,20.75
2022-10-25T16:04:18.222Z,29.00
2022-10-25T16:06:46.136Z,26.75
2022-10-25T16:09:13.559Z,25.50
2022-10-25T16:11:46.948Z,25.75
2022-10-25T16:14:25.110Z,27.75
2022-10-25T16:16:52.577Z,24.20
2022-10-25T16:19:22.138Z,25.75
2022-10-25T16:21:49.448Z,26.00
2022-10-25T16:24:16.876Z,26.50
2022-10-25T16:26:49.366Z,20.50
2022-10-25T16:29:26.006Z,21.00
2022-10-25T16:31:54.210Z,8.50
2022-10-25T16:34:21.981Z,24.00
2022-10-25T16:36:50.802Z,31.25
2022-10-25T16:39:18.616Z,25.25
2022-10-25T16:41:47.570Z,25.50
2022-10-25T16:44:17.836Z,23.50
2022-10-25T16:46:46.256Z,24.00
2022-10-25T16:49:13.793Z,22.00
2022-10-25T16:51:41.508Z,27.25
2022-10-25T16:54:10.531Z,24.75
2022-10-25T16:56:38.003Z,27.50
2022-10-25T16:59:05.317Z,28.50
2022-10-25T17:01:35.048Z,21.25
2022-10-25T17:04:04.286Z,26.25
2022-10-25T17:06:47.227Z,20.75
2022-10-25T17:09:14.661Z,23.25
2022-10-25T17:11:42.281Z,13.25
2022-10-25T17:14:10.956Z,23.75
2022-10-25T17:16:44.435Z,18.00
2022-10-25T17:19:12.604Z,15.75
2022-10-25T17:21:40.069Z,13.50
2022-10-25T17:24:09.841Z,18.50
2022-10-25T17:26:37.806Z,20.00
2022-10-25T17:29:05.460Z,19.75
2022-10-25T17:31:33.037Z,21.50
2022-10-25T17:34:01.382Z,18.25
2022-10-25T17:36:31.560Z,18.75
2022-10-25T17:39:00.231Z,17.50
2022-10-25T17:41:27.857Z,18.75
2022-10-25T17:43:56.769Z,13.00
2022-10-25T17:46:30.148Z,13.25
2022-10-25T17:49:03.660Z,18.50
2022-10-25T17:51:34.316Z,12.50
2022-10-25T17:54:02.074Z,5.00
2022-10-25T17:56:29.482Z,12.50
2022-10-25T17:59:01.159Z,8.00
2022-10-25T18:01:32.093Z,9.25
2022-10-25T18:03:59.547Z,12.75
2022-10-25T18:06:27.304Z,8.75
2022-10-25T18:08:57.284Z,12.00
2022-10-25T18:11:26.374Z,11.75
2022-10-25T18:14:02.057Z,6.50
2022-10-25T18:16:31.288Z,11.00
2022-10-25T18:19:02.208Z,7.75
2022-10-25T18:21:30.242Z,6.00
2022-10-25T18:23:59.282Z,9.75
2022-10-25T18:26:27.982Z,7.75
2022-10-25T18:28:57.157Z,9.50
2022-10-25T18:31:27.253Z,7.25
2022-10-25T18:33:55.793Z,7.00
2022-10-25T18:36:23.315Z,10.25
2022-10-25T18:38:51.647Z,9.25
2022-10-25T18:41:22.066Z,7.25
2022-10-25T18:43:49.930Z,9.75
2022-10-25T18:46:17.997Z,8.25
2022-10-25T18:48:49.111Z,9.25
2022-10-25T18:51:16.646Z,5.50
2022-10-25T18:53:43.899Z,7.75
2022-10-25T18:56:16.869Z,11.25
2022-10-25T18:58:46.900Z,9.50
2022-10-25T19:01:17.175Z,8.75
2022-10-25T19:03:45.019Z,8.50
2022-10-25T19:06:12.802Z,7.25
2022-10-25T19:08:40.336Z,7.75
2022-10-25T19:11:10.758Z,7.75
2022-10-25T19:13:38.477Z,11.75
2022-10-25T19:16:06.879Z,13.75
2022-10-25T19:18:36.069Z,4.50
2022-10-25T19:21:06.360Z,7.50
2022-10-25T19:23:34.396Z,11.75
2022-10-25T19:26:06.898Z,6.00
2022-10-25T19:28:34.978Z,9.75
2022-10-25T19:31:16.892Z,9.25
2022-10-25T19:33:52.947Z,9.50
2022-10-25T19:36:20.945Z,11.00
2022-10-25T19:38:51.552Z,12.50
2022-10-25T19:41:23.170Z,6.75
2022-10-25T19:43:51.128Z,7.00
2022-10-25T19:46:19.722Z,5.25
2022-10-25T19:48:47.167Z,9.25
2022-10-25T19:51:17.407Z,10.25
2022-10-25T19:53:45.260Z,8.50
2022-10-25T19:56:15.605Z,3.75
2022-10-25T19:58:43.788Z,4.50
2022-10-25T20:01:17.042Z,8.25
2022-10-25T20:03:46.294Z,9.25
2022-10-25T20:06:20.214Z,7.75
2022-10-25T20:08:51.200Z,5.00
2022-10-25T20:11:19.814Z,9.25
2022-10-25T20:13:47.400Z,8.50
2022-10-25T20:16:15.672Z,10.00
2022-10-25T20:18:43.662Z,6.00
2022-10-25T20:21:14.002Z,4.40
2022-10-25T20:23:44.750Z,8.60
2022-10-25T20:26:21.046Z,6.20
2022-10-25T20:28:49.480Z,4.20
2022-10-25T20:31:17.475Z,6.75
2022-10-25T20:33:45.257Z,6.00
2022-10-25T20:36:14.049Z,7.20
2022-10-25T20:38:42.425Z,6.00
2022-10-25T20:41:13.329Z,5.75
2022-10-25T20:43:43.661Z,5.20
2022-10-25T20:46:11.489Z,4.60
2022-10-25T20:48:39.219Z,5.00
2022-10-25T20:51:08.034Z,1.60
2022-10-25T20:53:37.771Z,7.00
2022-10-25T20:56:06.358Z,10.80
2022-10-25T20:58:35.162Z,8.40
2022-10-25T21:01:03.411Z,6.60
2022-10-25T21:03:54.365Z,8.60
2022-10-25T21:06:22.076Z,4.80
2022-10-25T21:08:49.875Z,7.00
2022-10-25T21:11:17.446Z,7.40
2022-10-25T21:13:45.125Z,2.00
2022-10-25T21:16:15.089Z,3.00
2022-10-25T21:18:43.458Z,5.50
2022-10-25T21:21:20.050Z,3.75
2022-10-25T21:23:48.209Z,5.75
2022-10-25T21:26:16.096Z,4.75
2022-10-25T21:28:44.085Z,8.25
2022-10-25T21:31:14.040Z,7.75
2022-10-25T21:33:49.980Z,5.75
2022-10-25T21:36:20.760Z,4.50
2022-10-25T21:38:49.016Z,4.40
2022-10-25T21:41:20.944Z,6.75
2022-10-25T21:43:51.277Z,3.50
2022-10-25T21:46:21.281Z,3.75
2022-10-25T21:48:50.875Z,6.20
2022-10-25T21:51:20.243Z,6.80
2022-10-25T21:53:48.730Z,7.20
2022-10-25T21:56:18.877Z,4.25
2022-10-25T21:58:49.175Z,3.50
2022-10-25T22:01:22.517Z,1.50
2022-10-25T22:03:50.567Z,4.00
2022-10-25T22:06:21.863Z,6.20
2022-10-25T22:08:50.183Z,3.40
2022-10-25T22:11:23.670Z,3.00
2022-10-25T22:13:56.844Z,3.00
2022-10-25T22:16:25.456Z,5.60
2022-10-25T22:18:59.182Z,4.40
2022-10-25T22:21:28.857Z,3.40
2022-10-25T22:23:56.421Z,2.00
2022-10-25T22:26:24.579Z,4.60
2022-10-25T22:28:57.783Z,3.00
2022-10-25T22:31:27.882Z,9.20
2022-10-25T22:34:03.425Z,2.80
2022-10-25T22:36:33.104Z,2.80
2022-10-25T22:39:01.459Z,3.40
2022-10-25T22:41:30.978Z,3.80
2022-10-25T22:43:59.659Z,7.60
2022-10-25T22:46:29.892Z,3.40
2022-10-25T22:48:59.381Z,3.60
2022-10-25T22:51:28.986Z,4.00
2022-10-25T22:53:56.579Z,4.20
2022-10-25T22:56:29.900Z,2.40
2022-10-25T22:59:03.057Z,6.40
2022-10-25T23:01:36.375Z,4.60
2022-10-25T23:04:09.489Z,2.40
2022-10-25T23:06:39.932Z,6.20
2022-10-25T23:09:09.814Z,6.40
2022-10-25T23:11:39.188Z,3.00
2022-10-25T23:14:14.811Z,3.80
2022-10-25T23:16:46.103Z,4.80
2022-10-25T23:19:13.758Z,5.00
2022-10-25T23:21:41.352Z,5.00
2022-10-25T23:24:09.990Z,2.80
2022-10-25T23:26:37.506Z,4.80
2022-10-25T23:29:05.720Z,4.00
2022-10-25T23:31:33.533Z,4.20
2022-10-25T23:34:01.627Z,4.40
2022-10-25T23:36:37.926Z,6.00
2022-10-25T23:39:07.898Z,4.00
2022-10-25T23:41:35.498Z,4.00
2022-10-25T23:44:03.138Z,3.80
2022-10-25T23:46:30.812Z,2.40
2022-10-25T23:48:58.578Z,4.80
2022-10-25T23:51:26.186Z,3.80
2022-10-25T23:53:53.699Z,5.40
2022-10-25T23:56:21.288Z,4.00
2022-10-25T23:58:54.019Z,2.60
